createdAt,value
2016-06-03T00:00:44.203Z,0
2016-06-03T00:01:44.284Z,0
2016-06-03T00:02:44.302Z,0
2016-06-03T00:03:44.320Z,0
2016-06-03T00:04:44.353Z,0
2016-06-03T00:05:44.450Z,0
2016-06-03T00:06:44.484Z,0
2016-06-03T00:07:44.487Z,0
2016-06-03T00:08:44.583Z,0
2016-06-03T00:09:44.633Z,0
2016-06-03T00:10:44.682Z,0
2016-06-03T00:11:44.670Z,0
2016-06-03T00:12:44.781Z,0
2016-06-03T00:13:44.769Z,0
2016-06-03T00:14:44.787Z,0
2016-06-03T00:15:44.868Z,0
2016-06-03T00:16:44.964Z,0
2016-06-03T00:17:44.936Z,0
2016-06-03T00:18:44.970Z,0
2016-06-03T00:19:45.020Z,0
2016-06-03T00:20:45.068Z,0
2016-06-03T00:21:45.088Z,0
2016-06-03T00:22:45.152Z,0
2016-06-03T00:23:45.186Z,0
2016-06-03T00:24:45.313Z,0
2016-06-03T00:25:45.426Z,0
2016-06-03T00:26:45.335Z,0
2016-06-03T00:27:45.368Z,0
2016-06-03T00:28:45.263Z,0
2016-06-03T00:29:45.452Z,0
2016-06-03T00:30:45.548Z,0
2016-06-03T00:31:45.521Z,0
2016-06-03T00:32:45.585Z,0
2016-06-03T00:33:45.635Z,0
2016-06-03T00:34:45.684Z,0
2016-06-03T00:35:45.703Z,0
2016-06-03T00:36:45.784Z,0
2016-06-03T00:37:45.786Z,0
2016-06-03T00:38:45.820Z,0
2016-06-03T00:39:46.401Z,0
2016-06-03T00:40:45.967Z,0
2016-06-03T00:41:46.001Z,0
2016-06-03T00:42:46.019Z,0
2016-06-03T00:43:46.036Z,0
2016-06-03T00:44:46.133Z,0
2016-06-03T00:45:46.105Z,0
2016-06-03T00:46:46.154Z,0
2016-06-03T00:47:46.236Z,0
2016-06-03T00:48:46.269Z,0
2016-06-03T00:49:46.131Z,0
2016-06-03T00:50:46.321Z,0
2016-06-03T00:51:46.402Z,0
2016-06-03T00:52:46.296Z,0
2016-06-03T00:53:46.438Z,0
2016-06-03T00:54:46.551Z,0
2016-06-03T00:55:46.663Z,0
2016-06-03T00:56:46.572Z,0
2016-06-03T00:57:46.638Z,0
2016-06-03T00:58:46.702Z,0
2016-06-03T00:59:46.611Z,0
2016-06-03T01:00:46.785Z,0
2016-06-03T01:01:46.804Z,0
2016-06-03T01:02:46.916Z,0
2016-06-03T01:03:46.887Z,0
2016-06-03T01:04:46.921Z,0
2016-06-03T01:05:47.018Z,0
2016-06-03T01:06:47.021Z,0
2016-06-03T01:07:47.040Z,0
2016-06-03T01:08:47.104Z,0
2016-06-03T01:09:47.029Z,0
2016-06-03T01:10:47.172Z,0
2016-06-03T01:11:47.222Z,0
2016-06-03T01:12:47.271Z,0
2016-06-03T01:13:47.195Z,0
2016-06-03T01:14:47.355Z,0
2016-06-03T01:15:47.373Z,0
2016-06-03T01:16:47.297Z,0
2016-06-03T01:17:47.363Z,0
2016-06-03T01:18:47.522Z,0
2016-06-03T01:19:47.602Z,0
2016-06-03T01:20:47.652Z,0
2016-06-03T01:21:47.624Z,0
2016-06-03T01:22:47.674Z,0
2016-06-03T01:23:47.816Z,0
2016-06-03T01:24:47.632Z,0
2016-06-03T01:25:48.916Z,0
2016-06-03T01:26:47.887Z,0
2016-06-03T01:27:47.952Z,0
2016-06-03T01:28:47.923Z,0
2016-06-03T01:29:48.004Z,0
2016-06-03T01:30:48.101Z,0
2016-06-03T01:31:48.104Z,0
2016-06-03T01:32:48.137Z,0
2016-06-03T01:33:48.140Z,0
2016-06-03T01:34:48.221Z,0
2016-06-03T01:35:48.254Z,0
2016-06-03T01:36:48.289Z,0
2016-06-03T01:37:48.307Z,0
2016-06-03T01:38:48.387Z,0
2016-06-03T01:39:48.360Z,0
2016-06-03T01:40:49.925Z,0
2016-06-03T01:41:48.552Z,0
2016-06-03T01:42:48.570Z,0
2016-06-03T01:43:48.620Z,0
2016-06-03T01:44:48.608Z,0
2016-06-03T01:45:48.703Z,0
2016-06-03T01:46:48.691Z,0
2016-06-03T01:47:48.725Z,0
2016-06-03T01:48:48.774Z,0
2016-06-03T01:49:48.871Z,0
2016-06-03T01:50:48.889Z,0
2016-06-03T01:51:48.908Z,0
2016-06-03T01:52:48.973Z,0
2016-06-03T01:53:49.006Z,0
2016-06-03T01:54:48.774Z,0
2016-06-03T01:55:49.840Z,0
2016-06-03T01:56:49.124Z,0
2016-06-03T01:57:49.188Z,0
2016-06-03T01:58:49.191Z,0
2016-06-03T01:59:49.241Z,0
2016-06-03T02:00:49.338Z,0
2016-06-03T02:01:49.324Z,0
2016-06-03T02:02:49.360Z,0
2016-06-03T02:03:49.409Z,0
2016-06-03T02:04:49.473Z,0
2016-06-03T02:05:49.523Z,0
2016-06-03T02:06:49.542Z,0
2016-06-03T02:07:49.575Z,0
2016-06-03T02:08:49.641Z,0
2016-06-03T02:09:50.565Z,0
2016-06-03T02:10:49.959Z,0
2016-06-03T02:11:49.820Z,0
2016-06-03T02:12:49.776Z,0
2016-06-03T02:13:49.826Z,0
2016-06-03T02:14:49.892Z,0
2016-06-03T02:15:49.972Z,0
2016-06-03T02:16:49.803Z,0
2016-06-03T02:17:50.008Z,0
2016-06-03T02:18:50.042Z,0
2016-06-03T02:19:50.092Z,0
2016-06-03T02:20:50.172Z,0
2016-06-03T02:21:50.175Z,0
2016-06-03T02:22:50.272Z,0
2016-06-03T02:23:50.274Z,0
2016-06-03T02:24:50.340Z,4
2016-06-03T02:25:50.077Z,4
2016-06-03T02:26:50.407Z,4
2016-06-03T02:27:50.410Z,4
2016-06-03T02:28:50.476Z,4
2016-06-03T02:29:50.385Z,0
2016-06-03T02:30:50.575Z,0
2016-06-03T02:31:50.577Z,0
2016-06-03T02:32:50.658Z,4
2016-06-03T02:33:50.708Z,0
2016-06-03T02:34:50.727Z,0
2016-06-03T02:35:50.760Z,4
2016-06-03T02:36:50.685Z,4
2016-06-03T02:37:50.890Z,4
2016-06-03T02:38:50.909Z,4
2016-06-03T02:39:51.146Z,4
2016-06-03T02:40:51.851Z,8
2016-06-03T02:41:51.011Z,8
2016-06-03T02:42:51.076Z,8
2016-06-03T02:43:51.109Z,8
2016-06-03T02:44:51.190Z,8
2016-06-03T02:45:51.178Z,8
2016-06-03T02:46:51.212Z,12
2016-06-03T02:47:51.277Z,12
2016-06-03T02:48:51.325Z,12
2016-06-03T02:49:51.344Z,12
2016-06-03T02:50:51.410Z,12
2016-06-03T02:51:51.459Z,12
2016-06-03T02:52:51.461Z,16
2016-06-03T02:53:51.511Z,20
2016-06-03T02:54:52.046Z,24
2016-06-03T02:55:52.877Z,20
2016-06-03T02:56:51.644Z,20
2016-06-03T02:57:51.710Z,20
2016-06-03T02:58:51.791Z,20
2016-06-03T02:59:51.794Z,20
2016-06-03T03:00:51.812Z,20
2016-06-03T03:01:51.908Z,24
2016-06-03T03:02:51.895Z,32
2016-06-03T03:03:51.929Z,40
2016-06-03T03:04:51.979Z,48
2016-06-03T03:05:52.075Z,56
2016-06-03T03:06:52.063Z,56
2016-06-03T03:07:52.096Z,52
2016-06-03T03:08:52.161Z,48
2016-06-03T03:09:52.054Z,48
2016-06-03T03:10:52.245Z,44
2016-06-03T03:11:52.107Z,52
2016-06-03T03:12:52.376Z,60
2016-06-03T03:13:52.378Z,76
2016-06-03T03:14:52.396Z,84
2016-06-03T03:15:52.445Z,92
2016-06-03T03:16:52.480Z,80
2016-06-03T03:17:52.561Z,84
2016-06-03T03:18:52.563Z,88
2016-06-03T03:19:52.659Z,100
2016-06-03T03:20:52.661Z,108
2016-06-03T03:21:52.697Z,100
2016-06-03T03:22:52.747Z,100
2016-06-03T03:23:52.827Z,104
2016-06-03T03:24:52.830Z,112
2016-06-03T03:25:53.755Z,120
2016-06-03T03:26:52.960Z,132
2016-06-03T03:27:53.009Z,160
2016-06-03T03:28:52.980Z,216
2016-06-03T03:29:53.046Z,224
2016-06-03T03:30:53.095Z,216
2016-06-03T03:31:53.130Z,208
2016-06-03T03:32:53.148Z,196
2016-06-03T03:33:53.182Z,164
2016-06-03T03:34:53.278Z,136
2016-06-03T03:35:53.282Z,116
2016-06-03T03:36:53.329Z,104
2016-06-03T03:37:53.379Z,88
2016-06-03T03:38:53.460Z,104
2016-06-03T03:39:53.917Z,132
2016-06-03T03:40:54.466Z,152
2016-06-03T03:41:53.547Z,196
2016-06-03T03:42:53.612Z,208
2016-06-03T03:43:53.614Z,244
2016-06-03T03:44:53.665Z,284
2016-06-03T03:45:53.714Z,260
2016-06-03T03:46:53.764Z,256
2016-06-03T03:47:53.766Z,304
2016-06-03T03:48:53.831Z,364
2016-06-03T03:49:53.865Z,544
2016-06-03T03:50:53.900Z,820
2016-06-03T03:51:53.981Z,840
2016-06-03T03:52:54.030Z,824
2016-06-03T03:53:54.048Z,936
2016-06-03T03:54:54.082Z,1044
2016-06-03T03:55:54.725Z,1000
2016-06-03T03:56:54.227Z,884
2016-06-03T03:57:54.184Z,952
2016-06-03T03:58:54.249Z,1112
2016-06-03T03:59:54.314Z,1400
2016-06-03T04:00:54.317Z,1556
2016-06-03T04:01:54.367Z,1544
2016-06-03T04:02:54.275Z,1368
2016-06-03T04:03:54.449Z,1260
2016-06-03T04:04:54.484Z,1184
2016-06-03T04:05:54.549Z,1196
2016-06-03T04:06:54.629Z,1320
2016-06-03T04:07:54.649Z,1668
2016-06-03T04:08:54.651Z,2188
2016-06-03T04:09:54.981Z,2364
2016-06-03T04:10:54.968Z,2140
2016-06-03T04:11:54.768Z,1880
2016-06-03T04:12:54.818Z,1808
2016-06-03T04:13:54.899Z,1788
2016-06-03T04:14:54.917Z,1672
2016-06-03T04:15:54.934Z,1836
2016-06-03T04:16:55.000Z,1728
2016-06-03T04:17:55.034Z,1780
2016-06-03T04:18:55.068Z,2480
2016-06-03T04:19:55.134Z,3008
2016-06-03T04:20:55.152Z,3392
2016-06-03T04:21:55.233Z,3640
2016-06-03T04:22:55.251Z,3768
2016-06-03T04:23:55.286Z,3904
2016-06-03T04:24:55.350Z,3996
2016-06-03T04:25:55.775Z,4052
2016-06-03T04:26:55.433Z,4024
2016-06-03T04:27:55.436Z,4076
2016-06-03T04:28:55.564Z,4028
2016-06-03T04:29:55.536Z,3776
2016-06-03T04:30:55.600Z,3220
2016-06-03T04:31:55.666Z,2736
2016-06-03T04:32:55.685Z,2372
2016-06-03T04:33:55.719Z,2256
2016-06-03T04:34:55.736Z,2404
2016-06-03T04:35:55.833Z,2908
2016-06-03T04:36:55.820Z,3136
2016-06-03T04:37:55.869Z,3168
2016-06-03T04:38:55.950Z,3424
2016-06-03T04:39:56.141Z,3700
2016-06-03T04:40:56.940Z,3520
2016-06-03T04:41:56.037Z,3524
2016-06-03T04:42:56.148Z,3572
2016-06-03T04:43:56.120Z,3116
2016-06-03T04:44:56.185Z,2936
2016-06-03T04:45:56.265Z,3004
2016-06-03T04:46:56.269Z,3008
2016-06-03T04:47:56.303Z,3132
2016-06-03T04:48:56.367Z,3372
2016-06-03T04:49:56.464Z,3508
2016-06-03T04:50:56.420Z,3708
2016-06-03T04:51:56.907Z,4104
2016-06-03T04:52:56.394Z,4420
2016-06-03T04:53:56.600Z,4596
2016-06-03T04:54:56.853Z,4856
2016-06-03T04:55:56.950Z,5124
2016-06-03T04:56:56.717Z,5376
2016-06-03T04:57:56.720Z,5640
2016-06-03T04:58:56.755Z,5888
2016-06-03T04:59:56.913Z,6100
2016-06-03T05:00:57.524Z,6232
2016-06-03T05:01:56.888Z,6316
2016-06-03T05:02:56.999Z,6464
2016-06-03T05:03:56.971Z,6536
2016-06-03T05:04:57.035Z,6564
2016-06-03T05:05:57.054Z,6792
2016-06-03T05:06:57.135Z,7040
2016-06-03T05:07:57.169Z,7156
2016-06-03T05:08:57.202Z,7192
2016-06-03T05:09:58.924Z,7280
2016-06-03T05:10:58.177Z,7492
2016-06-03T05:11:57.399Z,7564
2016-06-03T05:12:57.370Z,7308
2016-06-03T05:13:57.451Z,7012
2016-06-03T05:14:57.469Z,6552
2016-06-03T05:15:57.815Z,6140
2016-06-03T05:16:57.536Z,5996
2016-06-03T05:17:58.039Z,6148
2016-06-03T05:18:57.636Z,5920
2016-06-03T05:19:57.654Z,5856
2016-06-03T05:20:57.719Z,5424
2016-06-03T05:22:00.097Z,5288
2016-06-03T05:22:57.678Z,5460
2016-06-03T05:23:59.212Z,5492
2016-06-03T05:24:59.574Z,5288
2016-06-03T05:25:58.233Z,5096
2016-06-03T05:26:57.955Z,4512
2016-06-03T05:27:58.473Z,4216
2016-06-03T05:28:59.835Z,4052
2016-06-03T05:29:59.775Z,3936
2016-06-03T05:30:58.137Z,4032
2016-06-03T05:31:58.172Z,4540
2016-06-03T05:32:58.298Z,4808
2016-06-03T05:33:58.254Z,4524
2016-06-03T05:34:58.304Z,4492
2016-06-03T05:35:58.369Z,4592
2016-06-03T05:36:58.402Z,4484
2016-06-03T05:37:59.890Z,4180
2016-06-03T05:38:58.471Z,3444
2016-06-03T05:39:58.896Z,3084
2016-06-03T05:40:59.585Z,2088
2016-06-03T05:41:58.604Z,1900
2016-06-03T05:42:58.763Z,2068
2016-06-03T05:43:58.719Z,2740
2016-06-03T05:44:58.737Z,2528
2016-06-03T05:45:58.787Z,2260
2016-06-03T05:46:58.821Z,1992
2016-06-03T05:47:59.043Z,2240
2016-06-03T05:48:58.904Z,2588
2016-06-03T05:49:58.938Z,2588
2016-06-03T05:50:59.395Z,3112
2016-06-03T05:51:59.053Z,3820
2016-06-03T05:52:59.180Z,4864
2016-06-03T05:53:59.152Z,5424
2016-06-03T05:54:59.342Z,5848
2016-06-03T05:55:59.969Z,5664
2016-06-03T05:56:59.253Z,5984
2016-06-03T05:57:59.303Z,7612
2016-06-03T05:58:59.337Z,10728
2016-06-03T05:59:59.402Z,10936
2016-06-03T06:01:00.030Z,9848
2016-06-03T06:01:59.517Z,9368
2016-06-03T06:02:59.505Z,8760
2016-06-03T06:03:59.569Z,9936
2016-06-03T06:04:59.619Z,10612
2016-06-03T06:05:59.841Z,9356
2016-06-03T06:06:59.672Z,8328
2016-06-03T06:07:59.721Z,7656
2016-06-03T06:09:01.536Z,7232
2016-06-03T06:10:00.460Z,6988
2016-06-03T06:11:00.902Z,7160
2016-06-03T06:12:02.121Z,6696
2016-06-03T06:12:59.984Z,6460
2016-06-03T06:13:59.971Z,6520
2016-06-03T06:15:00.021Z,6320
2016-06-03T06:16:00.086Z,6552
2016-06-03T06:17:00.120Z,6328
2016-06-03T06:18:00.154Z,6468
2016-06-03T06:19:00.204Z,6628
2016-06-03T06:20:00.253Z,6676
2016-06-03T06:21:00.303Z,6968
2016-06-03T06:22:00.321Z,7536
2016-06-03T06:23:02.762Z,7832
2016-06-03T06:24:02.436Z,7968
2016-06-03T06:25:00.470Z,8828
2016-06-03T06:26:02.410Z,9936
2016-06-03T06:27:00.382Z,7936
2016-06-03T06:28:00.633Z,7256
2016-06-03T06:29:00.621Z,7772
2016-06-03T06:30:03.624Z,6660
2016-06-03T06:31:01.548Z,6504
2016-06-03T06:32:00.847Z,6432
2016-06-03T06:33:00.803Z,5068
2016-06-03T06:34:04.010Z,4612
2016-06-03T06:35:03.106Z,5212
2016-06-03T06:36:01.015Z,4296
2016-06-03T06:37:01.018Z,3436
2016-06-03T06:38:03.067Z,3980
2016-06-03T06:39:03.710Z,3844
2016-06-03T06:40:04.964Z,3476
2016-06-03T06:41:00.904Z,4328
2016-06-03T06:42:01.702Z,4668
2016-06-03T06:43:01.721Z,4500
2016-06-03T06:44:01.771Z,4820
2016-06-03T06:45:03.914Z,5700
2016-06-03T06:46:03.573Z,5884
2016-06-03T06:47:07.850Z,5544
2016-06-03T06:48:04.052Z,6456
2016-06-03T06:49:04.207Z,6032
2016-06-03T06:50:04.518Z,5084
2016-06-03T06:51:01.751Z,4192
2016-06-03T06:52:04.875Z,3304
2016-06-03T06:53:01.981Z,3316
2016-06-03T06:54:02.493Z,2948
2016-06-03T06:55:03.117Z,2712
2016-06-03T06:56:10.817Z,2480
2016-06-03T06:57:02.057Z,2180
2016-06-03T06:58:04.626Z,2224
2016-06-03T06:59:02.366Z,2336
2016-06-03T07:00:02.217Z,2468
2016-06-03T07:01:02.348Z,3012
2016-06-03T07:02:02.352Z,3500
2016-06-03T07:03:02.559Z,3736
2016-06-03T07:04:02.390Z,4184
2016-06-03T07:05:08.457Z,5088
2016-06-03T07:06:04.742Z,6216
2016-06-03T07:07:07.386Z,7164
2016-06-03T07:08:05.030Z,7884
2016-06-03T07:09:02.956Z,7724
2016-06-03T07:10:03.725Z,7624
2016-06-03T07:11:03.510Z,8180
2016-06-03T07:12:02.950Z,8288
2016-06-03T07:13:02.624Z,8588
2016-06-03T07:14:03.081Z,9588
2016-06-03T07:15:03.536Z,10900
2016-06-03T07:16:03.445Z,11300
2016-06-03T07:17:03.838Z,11080
2016-06-03T07:18:04.434Z,10252
2016-06-03T07:19:03.187Z,8632
2016-06-03T07:20:03.408Z,7016
2016-06-03T07:21:05.786Z,5636
2016-06-03T07:22:07.211Z,6200
2016-06-03T07:23:07.464Z,6168
2016-06-03T07:24:03.060Z,8288
2016-06-03T07:25:07.782Z,9764
2016-06-03T07:26:03.363Z,9104
2016-06-03T07:27:03.506Z,7336
2016-06-03T07:28:03.258Z,6352
2016-06-03T07:29:05.449Z,6696
2016-06-03T07:30:03.530Z,8096
2016-06-03T07:31:03.548Z,8428
2016-06-03T07:32:03.597Z,6988
2016-06-03T07:33:03.835Z,6504
2016-06-03T07:34:03.852Z,6276
2016-06-03T07:35:04.074Z,5720
2016-06-03T07:36:04.093Z,5660
2016-06-03T07:37:04.424Z,7052
2016-06-03T07:38:05.738Z,6340
2016-06-03T07:39:07.382Z,4824
2016-06-03T07:40:07.729Z,5028
2016-06-03T07:41:03.982Z,4412
2016-06-03T07:42:04.484Z,4916
2016-06-03T07:43:04.048Z,5004
2016-06-03T07:44:06.426Z,4700
2016-06-03T07:45:06.257Z,4016
2016-06-03T07:46:04.104Z,3612
2016-06-03T07:47:06.497Z,2752
2016-06-03T07:48:06.172Z,2704
2016-06-03T07:49:06.034Z,3248
2016-06-03T07:50:06.567Z,3152
2016-06-03T07:51:06.273Z,3176
2016-06-03T07:52:04.433Z,2620
2016-06-03T07:53:05.903Z,3560
2016-06-03T07:54:04.547Z,4768
2016-06-03T07:55:04.597Z,4772
2016-06-03T07:56:04.897Z,4876
2016-06-03T07:57:06.805Z,5076
2016-06-03T07:58:04.699Z,5620
2016-06-03T07:59:06.622Z,5728
2016-06-03T08:00:04.844Z,5656
2016-06-03T08:01:04.863Z,6088
2016-06-03T08:02:05.005Z,6248
2016-06-03T08:03:08.775Z,6888
2016-06-03T08:04:08.449Z,6608
2016-06-03T08:05:09.186Z,6544
2016-06-03T08:06:08.376Z,6192
2016-06-03T08:07:09.129Z,6764
2016-06-03T08:08:08.382Z,7576
2016-06-03T08:09:09.603Z,8048
2016-06-03T08:10:08.887Z,7308
2016-06-03T08:11:05.421Z,7156
2016-06-03T08:12:08.924Z,7108
2016-06-03T08:13:05.348Z,8368
2016-06-03T08:14:05.413Z,11068
2016-06-03T08:15:10.166Z,14880
2016-06-03T08:16:05.481Z,16076
2016-06-03T08:17:09.812Z,17120
2016-06-03T08:18:05.581Z,18368
2016-06-03T08:19:05.676Z,20704
2016-06-03T08:20:05.648Z,22144
2016-06-03T08:21:05.682Z,23168
2016-06-03T08:22:05.778Z,23360
2016-06-03T08:23:05.812Z,23360
2016-06-03T08:24:05.831Z,22144
2016-06-03T08:25:05.881Z,20480
2016-06-03T08:26:06.024Z,18880
2016-06-03T08:27:05.964Z,17536
2016-06-03T08:28:06.358Z,16900
2016-06-03T08:29:06.078Z,16880
2016-06-03T08:30:06.300Z,17728
2016-06-03T08:31:06.163Z,19168
2016-06-03T08:32:06.727Z,20736
2016-06-03T08:33:06.699Z,22208
2016-06-03T08:34:06.295Z,22848
2016-06-03T08:35:06.330Z,22816
2016-06-03T08:36:06.207Z,22880
2016-06-03T08:37:06.460Z,22752
2016-06-03T08:38:06.463Z,22624
2016-06-03T08:39:06.496Z,22528
2016-06-03T08:40:06.983Z,22720
2016-06-03T08:41:06.798Z,23328
2016-06-03T08:42:06.645Z,24064
2016-06-03T08:43:06.695Z,24992
2016-06-03T08:44:08.697Z,23648
2016-06-03T08:45:10.997Z,20288
2016-06-03T08:46:10.203Z,18912
2016-06-03T08:47:06.892Z,21408
2016-06-03T08:48:09.130Z,24288
2016-06-03T08:49:06.976Z,23072
2016-06-03T08:50:07.010Z,21440
2016-06-03T08:51:07.076Z,18240
2016-06-03T08:52:07.125Z,21568
2016-06-03T08:53:07.158Z,22944
2016-06-03T08:54:07.209Z,20800
2016-06-03T08:55:09.273Z,16600
2016-06-03T08:56:07.308Z,13336
2016-06-03T08:57:10.201Z,10868
2016-06-03T08:58:07.469Z,8724
2016-06-03T08:59:07.472Z,7496
2016-06-03T09:00:07.475Z,5900
2016-06-03T09:01:07.555Z,4364
2016-06-03T09:02:09.527Z,4196
2016-06-03T09:03:10.733Z,5188
2016-06-03T09:04:13.064Z,6536
2016-06-03T09:05:07.848Z,8192
2016-06-03T09:06:07.944Z,10352
2016-06-03T09:07:09.665Z,11588
2016-06-03T09:08:09.340Z,14252
2016-06-03T09:09:07.936Z,13920
2016-06-03T09:10:08.221Z,12128
2016-06-03T09:11:10.566Z,14108
2016-06-03T09:12:10.366Z,15128
2016-06-03T09:13:07.979Z,16336
2016-06-03T09:14:10.185Z,17120
2016-06-03T09:15:08.234Z,16896
2016-06-03T09:16:09.096Z,16220
2016-06-03T09:17:10.412Z,16488
2016-06-03T09:18:10.227Z,15648
2016-06-03T09:19:14.651Z,14672
2016-06-03T09:20:08.466Z,14488
2016-06-03T09:21:08.437Z,14204
2016-06-03T09:22:08.550Z,13564
2016-06-03T09:23:08.584Z,13720
2016-06-03T09:24:08.618Z,14716
2016-06-03T09:25:09.651Z,15172
2016-06-03T09:26:09.106Z,15172
2016-06-03T09:27:08.642Z,14936
2016-06-03T09:28:08.753Z,15292
2016-06-03T09:29:10.380Z,15968
2016-06-03T09:30:08.853Z,16420
2016-06-03T09:31:08.933Z,15960
2016-06-03T09:32:11.294Z,13100
2016-06-03T09:33:09.063Z,10660
2016-06-03T09:34:11.426Z,10144
2016-06-03T09:35:09.038Z,9008
2016-06-03T09:36:09.119Z,7464
2016-06-03T09:37:09.168Z,6708
2016-06-03T09:38:09.639Z,7728
2016-06-03T09:39:10.377Z,10044
2016-06-03T09:40:11.988Z,12928
2016-06-03T09:41:10.866Z,17280
2016-06-03T09:42:11.760Z,21952
2016-06-03T09:43:11.325Z,23744
2016-06-03T09:44:12.688Z,23872
2016-06-03T09:45:09.533Z,22976
2016-06-03T09:46:09.567Z,21696
2016-06-03T09:47:09.664Z,20800
2016-06-03T09:48:10.150Z,19808
2016-06-03T09:49:09.732Z,18880
2016-06-03T09:50:09.765Z,19744
2016-06-03T09:51:09.815Z,22304
2016-06-03T09:52:09.912Z,24832
2016-06-03T09:53:09.961Z,26016
2016-06-03T09:54:10.011Z,28608
2016-06-03T09:55:10.029Z,29696
2016-06-03T09:56:10.250Z,28800
2016-06-03T09:57:10.175Z,28064
2016-06-03T09:58:10.286Z,24512
2016-06-03T09:59:10.727Z,23104
2016-06-03T10:00:10.418Z,21504
2016-06-03T10:01:10.264Z,18720
2016-06-03T10:02:10.314Z,17984
2016-06-03T10:03:10.285Z,16768
2016-06-03T10:04:10.522Z,15192
2016-06-03T10:05:10.446Z,15512
2016-06-03T10:06:10.544Z,17376
2016-06-03T10:07:10.577Z,17120
2016-06-03T10:08:10.626Z,20224
2016-06-03T10:09:10.677Z,22432
2016-06-03T10:10:10.538Z,19456
2016-06-03T10:11:10.603Z,19008
2016-06-03T10:12:10.778Z,17440
2016-06-03T10:13:10.905Z,13184
2016-06-03T10:14:10.893Z,10756
2016-06-03T10:15:10.910Z,9608
2016-06-03T10:16:10.804Z,10504
2016-06-03T10:17:11.119Z,14408
2016-06-03T10:18:11.060Z,17856
2016-06-03T10:19:11.124Z,18240
2016-06-03T10:20:11.159Z,17888
2016-06-03T10:21:11.255Z,17632
2016-06-03T10:22:11.226Z,17408
2016-06-03T10:23:11.276Z,16640
2016-06-03T10:24:11.372Z,15508
2016-06-03T10:25:11.969Z,14260
2016-06-03T10:26:11.285Z,13044
2016-06-03T10:27:11.459Z,12224
2016-06-03T10:28:11.556Z,12456
2016-06-03T10:29:11.589Z,13452
2016-06-03T10:30:11.623Z,13232
2016-06-03T10:31:11.657Z,12740
2016-06-03T10:32:11.753Z,12468
2016-06-03T10:33:11.787Z,13344
2016-06-03T10:34:11.805Z,15228
2016-06-03T10:35:11.886Z,17440
2016-06-03T10:36:11.889Z,20448
2016-06-03T10:37:12.626Z,32448
2016-06-03T10:38:11.973Z,68736
2016-06-03T10:39:12.053Z,32128
2016-06-03T10:40:12.213Z,32192
2016-06-03T10:41:11.871Z,28320
2016-06-03T10:42:12.186Z,23584
2016-06-03T10:43:12.252Z,18304
2016-06-03T10:44:12.676Z,13420
2016-06-03T10:45:13.069Z,10940
2016-06-03T10:46:12.510Z,11064
2016-06-03T10:47:12.279Z,12404
2016-06-03T10:48:12.499Z,15052
2016-06-03T10:49:12.518Z,14664
2016-06-03T10:50:12.646Z,13044
2016-06-03T10:51:14.086Z,19232
2016-06-03T10:52:12.729Z,27776
2016-06-03T10:53:12.684Z,105088
2016-06-03T10:54:12.735Z,29440
2016-06-03T10:55:13.253Z,22944
2016-06-03T10:56:12.834Z,83808
2016-06-03T10:57:13.321Z,34336
2016-06-03T10:58:12.854Z,43904
2016-06-03T10:59:13.029Z,73024
2016-06-03T11:00:13.031Z,57088
2016-06-03T11:01:13.050Z,59520
2016-06-03T11:02:13.178Z,26784
2016-06-03T11:03:13.134Z,21760
2016-06-03T11:04:13.230Z,17056
2016-06-03T11:05:13.295Z,12344
2016-06-03T11:06:13.297Z,10912
2016-06-03T11:07:13.410Z,11900
2016-06-03T11:08:13.397Z,14896
2016-06-03T11:09:13.556Z,101632
2016-06-03T11:10:13.402Z,104224
2016-06-03T11:11:13.764Z,132416
2016-06-03T11:12:13.721Z,128768
2016-06-03T11:13:13.660Z,127616
2016-06-03T11:14:13.726Z,86144
2016-06-03T11:15:13.603Z,108576
2016-06-03T11:16:13.856Z,95456
2016-06-03T11:17:13.687Z,95680
2016-06-03T11:18:13.940Z,105888
2016-06-03T11:19:14.005Z,111360
2016-06-03T11:20:14.038Z,118912
2016-06-03T11:21:14.120Z,128640
2016-06-03T11:22:14.185Z,130624
2016-06-03T11:23:15.375Z,124832
2016-06-03T11:24:14.221Z,110624
2016-06-03T11:25:16.317Z,98176
2016-06-03T11:26:15.352Z,91808
2016-06-03T11:27:14.402Z,79744
2016-06-03T11:28:16.170Z,15708
2016-06-03T11:29:15.548Z,109248
2016-06-03T11:30:14.659Z,40672
2016-06-03T11:31:21.709Z,91584
2016-06-03T11:32:14.742Z,34816
2016-06-03T11:33:15.073Z,42432
2016-06-03T11:34:14.842Z,29760
2016-06-03T11:35:17.204Z,114528
2016-06-03T11:36:17.551Z,34272
2016-06-03T11:37:17.725Z,120992
2016-06-03T11:38:17.603Z,121280
2016-06-03T11:39:17.200Z,87392
2016-06-03T11:40:15.452Z,22976
2016-06-03T11:41:15.064Z,27424
2016-06-03T11:42:15.536Z,111520
2016-06-03T11:43:15.304Z,34144
2016-06-03T11:44:15.932Z,22208
2016-06-03T11:45:17.543Z,36672
2016-06-03T11:46:15.468Z,28736
2016-06-03T11:47:15.658Z,36960
2016-06-03T11:48:15.614Z,32448
2016-06-03T11:49:15.680Z,34592
2016-06-03T11:50:17.010Z,113184
2016-06-03T11:51:15.763Z,32480
2016-06-03T11:52:15.796Z,23584
2016-06-03T11:53:15.831Z,21440
2016-06-03T11:54:15.926Z,24160
2016-06-03T11:55:17.961Z,29536
2016-06-03T11:56:18.510Z,25248
2016-06-03T11:57:15.904Z,62400
2016-06-03T11:58:16.110Z,20768
2016-06-03T11:59:16.175Z,17248
2016-06-03T12:00:16.646Z,18752
2016-06-03T12:01:16.259Z,22912
2016-06-03T12:02:16.433Z,26784
2016-06-03T12:03:16.389Z,31680
2016-06-03T12:04:16.422Z,126368
2016-06-03T12:05:17.848Z,113696
2016-06-03T12:06:16.522Z,67072
2016-06-03T12:07:16.618Z,25184
2016-06-03T12:08:16.621Z,20992
2016-06-03T12:09:16.686Z,19264
2016-06-03T12:10:16.641Z,14348
2016-06-03T12:11:16.708Z,10656
2016-06-03T12:12:16.819Z,9904
2016-06-03T12:13:16.900Z,9368
2016-06-03T12:14:16.997Z,9012
2016-06-03T12:15:16.999Z,10284
2016-06-03T12:16:17.049Z,13124
2016-06-03T12:17:17.113Z,19040
2016-06-03T12:18:17.133Z,112288
2016-06-03T12:19:17.197Z,43744
2016-06-03T12:20:17.247Z,21120
2016-06-03T12:21:17.327Z,14508
2016-06-03T12:22:17.346Z,13784
2016-06-03T12:23:17.646Z,12028
2016-06-03T12:24:17.477Z,11292
2016-06-03T12:25:18.635Z,10804
2016-06-03T12:26:17.529Z,9432
2016-06-03T12:27:17.765Z,9952
2016-06-03T12:28:17.690Z,11128
2016-06-03T12:29:17.662Z,12388
2016-06-03T12:30:17.759Z,17440
2016-06-03T12:31:17.792Z,22144
2016-06-03T12:32:17.889Z,120128
2016-06-03T12:33:17.892Z,34304
2016-06-03T12:34:17.910Z,103264
2016-06-03T12:35:17.975Z,30112
2016-06-03T12:36:18.165Z,23136
2016-06-03T12:37:18.058Z,21888
2016-06-03T12:38:18.139Z,26784
2016-06-03T12:39:18.189Z,15088
2016-06-03T12:40:17.957Z,10896
2016-06-03T12:41:19.210Z,8872
2016-06-03T12:42:18.338Z,8332
2016-06-03T12:43:18.372Z,9240
2016-06-03T12:44:18.421Z,10608
2016-06-03T12:45:18.627Z,66048
2016-06-03T12:46:18.520Z,15820
2016-06-03T12:47:18.554Z,15068
2016-06-03T12:48:18.588Z,60672
2016-06-03T12:49:18.653Z,22048
2016-06-03T12:50:18.640Z,73888
2016-06-03T12:51:18.830Z,11404
2016-06-03T12:52:18.646Z,11076
2016-06-03T12:53:18.710Z,12008
2016-06-03T12:54:18.885Z,12228
2016-06-03T12:55:18.872Z,9872
2016-06-03T12:56:19.468Z,8888
2016-06-03T12:57:19.065Z,8688
2016-06-03T12:58:19.006Z,8876
2016-06-03T12:59:19.149Z,7952
2016-06-03T13:00:19.246Z,8004
2016-06-03T13:01:19.232Z,8396
2016-06-03T13:02:28.125Z,7288
2016-06-03T13:03:27.425Z,7092
2016-06-03T13:04:27.397Z,6476
2016-06-03T13:05:27.712Z,4820
2016-06-03T13:06:27.340Z,3388
2016-06-03T13:07:27.562Z,2488
2016-06-03T13:08:19.564Z,2004
2016-06-03T13:09:19.706Z,1856
2016-06-03T13:10:20.414Z,1852
2016-06-03T13:11:26.837Z,1936
2016-06-03T13:12:19.746Z,2084
2016-06-03T13:13:19.842Z,2436
2016-06-03T13:14:19.861Z,2992
2016-06-03T13:15:19.880Z,3920
2016-06-03T13:16:27.632Z,5280
2016-06-03T13:17:20.010Z,5608
2016-06-03T13:18:20.028Z,5416
2016-06-03T13:19:20.046Z,5344
2016-06-03T13:20:20.127Z,6216
2016-06-03T13:21:20.130Z,6696
2016-06-03T13:22:20.180Z,7248
2016-06-03T13:23:20.244Z,8436
2016-06-03T13:24:20.310Z,8608
2016-06-03T13:25:20.578Z,6460
2016-06-03T13:26:20.268Z,4064
2016-06-03T13:27:20.443Z,2836
2016-06-03T13:28:20.555Z,3092
2016-06-03T13:29:20.511Z,4548